createdAt,value
2022-07-30T00:07:14.611Z,13743.82812
2022-07-30T00:22:17.065Z,13837.08789
2022-07-30T00:37:19.368Z,13367.53809
2022-07-30T00:52:21.646Z,12370.96387
2022-07-30T01:07:24.106Z,9119.89844
2022-07-30T01:22:30.612Z,8113.56494
2022-07-30T01:37:33.307Z,7312.18506
2022-07-30T01:52:35.583Z,6070.53418
2022-07-30T02:07:37.922Z,1138.63184
2022-07-30T02:22:40.222Z,948.85986
2022-07-30T02:37:44.122Z,760.1723
2022-07-30T02:52:46.832Z,548.7121
2022-07-30T03:07:49.100Z,344.84277
2022-07-30T03:22:51.446Z,161.57729
2022-07-30T03:37:53.765Z,54.22056
2022-07-30T03:52:56.089Z,10.84411
2022-07-30T04:07:58.403Z,1.08441
2022-07-30T04:23:02.207Z,0
2022-07-30T04:38:04.489Z,0
2022-07-30T04:53:06.838Z,0
2022-07-30T05:08:09.068Z,0
2022-07-30T05:23:11.379Z,0
2022-07-30T05:38:13.662Z,0
2022-07-30T05:53:15.983Z,0
2022-07-30T06:08:18.393Z,0
2022-07-30T06:23:20.698Z,0
2022-07-30T06:38:23.183Z,0
2022-07-30T06:53:25.562Z,0
2022-07-30T07:08:27.840Z,0
2022-07-30T07:23:41.668Z,0
2022-07-30T07:38:45.000Z,0
2022-07-30T07:54:05.731Z,0
2022-07-30T08:09:22.539Z,0
2022-07-30T08:24:24.727Z,0
2022-07-30T08:39:26.947Z,0
2022-07-30T08:54:29.212Z,0
2022-07-30T09:09:31.554Z,0
2022-07-30T09:24:34.492Z,0
2022-07-30T09:39:36.789Z,0
2022-07-30T09:54:39.038Z,0
2022-07-30T10:09:54.341Z,0
2022-07-30T10:24:56.579Z,0
2022-07-30T10:39:59.622Z,0
2022-07-30T10:55:01.972Z,0
2022-07-30T11:10:09.630Z,0
2022-07-30T11:25:13.066Z,0
2022-07-30T11:40:15.910Z,0
2022-07-30T11:55:28.655Z,3.25323
2022-07-30T12:10:31.003Z,23.85705
2022-07-30T12:25:33.347Z,87.83731
2022-07-30T12:40:35.671Z,201.7005
2022-07-30T12:55:38.166Z,344.84277
2022-07-30T13:10:40.458Z,670.16614
2022-07-30T13:25:42.781Z,1077.90479
2022-07-30T13:40:45.067Z,1604.92871
2022-07-30T13:55:47.421Z,2201.35498
2022-07-30T14:10:49.710Z,2107.01099
2022-07-30T14:25:52.287Z,2679.58032
2022-07-30T14:40:54.551Z,3804.11475
2022-07-30T14:55:56.909Z,4293.18408
2022-07-30T15:11:02.596Z,2767.41748
2022-07-30T15:26:08.454Z,3781.34204
2022-07-30T15:41:13.712Z,6082.46289
2022-07-30T15:56:16.394Z,8163.44775
2022-07-30T16:11:18.703Z,7761.13135
2022-07-30T16:26:20.949Z,7877.16357
2022-07-30T16:41:23.237Z,7616.90479
2022-07-30T16:56:25.556Z,6912.0376
2022-07-30T17:11:46.954Z,6990.11523
2022-07-30T17:26:54.479Z,6827.45312
2022-07-30T17:42:01.976Z,6692.98633
2022-07-30T17:57:05.487Z,6505.3833
2022-07-30T18:12:07.781Z,6580.20752
2022-07-30T18:27:10.052Z,6703.83057
2022-07-30T18:42:12.379Z,6617.07764
2022-07-30T18:57:14.820Z,6606.2334
2022-07-30T19:12:17.129Z,6560.68799
2022-07-30T19:27:19.424Z,6659.36963
2022-07-30T19:42:21.714Z,6674.55127
2022-07-30T19:57:24.049Z,6771.06396
2022-07-30T20:12:56.011Z,6743.95361
2022-07-30T20:27:59.249Z,6566.11035
2022-07-30T20:43:01.758Z,6712.50586
2022-07-30T20:58:13.891Z,6749.37549
2022-07-30T21:13:19.088Z,7022.64746
2022-07-30T21:28:27.177Z,7761.13135
2022-07-30T21:43:30.558Z,8731.67969
2022-07-30T21:58:36.071Z,9311.83984
2022-07-30T23:12:28.467Z,9966.82422
2022-07-30T23:27:32.755Z,11850.44629
2022-07-30T23:42:35.019Z,12449.04102
2022-07-30T23:57:37.428Z,12997.75293
